createdAt,value
2024-03-23T00:00:37.061Z,24.83
2024-03-23T00:01:37.083Z,24.85
2024-03-23T00:02:37.079Z,24.85
2024-03-23T00:03:37.084Z,24.85
2024-03-23T00:04:37.065Z,24.82
2024-03-23T00:05:37.053Z,24.83
2024-03-23T00:06:37.075Z,24.82
2024-03-23T00:07:37.069Z,24.82
2024-03-23T00:08:37.078Z,24.83
2024-03-23T00:09:37.069Z,24.82
2024-03-23T00:10:37.117Z,24.83
2024-03-23T00:11:37.152Z,24.83
2024-03-23T00:12:37.200Z,24.82
2024-03-23T00:13:37.283Z,24.81
2024-03-23T00:14:37.288Z,24.81
2024-03-23T00:15:37.327Z,24.78
2024-03-23T00:16:37.362Z,24.79
2024-03-23T00:17:37.403Z,24.79
2024-03-23T00:18:37.477Z,24.79
2024-03-23T00:19:37.499Z,24.81
2024-03-23T00:20:37.559Z,24.79
2024-03-23T00:21:37.594Z,24.81
2024-03-23T00:22:37.649Z,24.81
2024-03-23T00:23:37.693Z,24.81
2024-03-23T00:24:37.742Z,24.81
2024-03-23T00:25:37.776Z,24.78
2024-03-23T00:26:37.826Z,24.79
2024-03-23T00:27:37.903Z,24.78
2024-03-23T00:28:37.922Z,24.78
2024-03-23T00:29:37.970Z,24.79
2024-03-23T00:30:38.006Z,24.77
2024-03-23T00:31:38.090Z,24.78
2024-03-23T00:32:38.098Z,24.78
2024-03-23T00:33:38.160Z,24.78
2024-03-23T00:34:38.198Z,24.77
2024-03-23T00:35:38.249Z,24.77
2024-03-23T00:36:38.293Z,24.75
2024-03-23T00:37:38.349Z,24.75
2024-03-23T00:38:38.406Z,24.77
2024-03-23T00:39:38.436Z,24.74
2024-03-23T00:40:38.495Z,24.77
2024-03-23T00:41:38.528Z,24.77
2024-03-23T00:42:39.558Z,24.75
2024-03-23T00:43:38.651Z,24.75
2024-03-23T00:44:38.677Z,24.74
2024-03-23T00:45:38.723Z,24.74
2024-03-23T00:46:38.778Z,24.75
2024-03-23T00:47:38.843Z,24.74
2024-03-23T00:48:38.897Z,24.74
2024-03-23T00:49:38.915Z,24.74
2024-03-23T00:50:38.958Z,24.72
2024-03-23T00:51:39.020Z,24.75
2024-03-23T00:52:39.059Z,24.75
2024-03-23T00:53:39.131Z,24.74
2024-03-23T00:54:39.163Z,24.74
2024-03-23T00:55:39.240Z,24.72
2024-03-23T00:56:39.267Z,24.72
2024-03-23T00:57:39.302Z,24.74
2024-03-23T00:58:39.363Z,24.69
2024-03-23T00:59:39.403Z,24.71
2024-03-23T01:00:39.444Z,24.71
2024-03-23T01:01:39.522Z,24.72
2024-03-23T01:02:39.546Z,24.72
2024-03-23T01:03:39.637Z,24.72
2024-03-23T01:04:39.639Z,24.72
2024-03-23T01:05:39.689Z,24.71
2024-03-23T01:06:39.731Z,24.71
2024-03-23T01:07:39.782Z,24.71
2024-03-23T01:08:39.872Z,24.71
2024-03-23T01:09:39.903Z,24.71
2024-03-23T01:10:39.976Z,24.69
2024-03-23T01:11:39.993Z,24.69
2024-03-23T01:12:40.039Z,24.71
2024-03-23T01:13:40.137Z,24.71
2024-03-23T01:14:40.151Z,24.68
2024-03-23T01:15:40.225Z,24.68
2024-03-23T01:16:40.260Z,24.69
2024-03-23T01:17:40.309Z,24.68
2024-03-23T01:18:40.366Z,24.67
2024-03-23T01:19:40.776Z,24.68
2024-03-23T01:20:40.490Z,24.67
2024-03-23T01:21:40.542Z,24.68
2024-03-23T01:22:40.604Z,24.67
2024-03-23T01:23:40.662Z,24.68
2024-03-23T01:24:40.726Z,24.65
2024-03-23T01:25:40.778Z,24.65
2024-03-23T01:26:40.854Z,24.65
2024-03-23T01:27:40.891Z,24.64
2024-03-23T01:28:40.978Z,24.65
2024-03-23T01:29:41.002Z,24.67
2024-03-23T01:30:41.057Z,24.67
2024-03-23T01:31:41.119Z,24.65
2024-03-23T01:32:41.176Z,24.65
2024-03-23T01:33:41.234Z,24.62
2024-03-23T01:34:41.278Z,24.64
2024-03-23T01:35:41.347Z,24.65
2024-03-23T01:36:41.394Z,24.65
2024-03-23T01:37:41.461Z,24.67
2024-03-23T01:38:41.538Z,24.65
2024-03-23T01:39:41.567Z,24.65
2024-03-23T01:40:41.617Z,24.65
2024-03-23T01:41:41.670Z,24.64
2024-03-23T01:42:41.756Z,24.65
2024-03-23T01:43:41.799Z,24.64
2024-03-23T01:44:41.855Z,24.64
2024-03-23T01:45:41.919Z,24.65
2024-03-23T01:46:41.956Z,24.62
2024-03-23T01:47:42.001Z,24.65
2024-03-23T01:48:42.080Z,24.65
2024-03-23T01:49:42.144Z,24.62
2024-03-23T01:50:42.187Z,24.64
2024-03-23T01:51:42.238Z,24.64
2024-03-23T01:52:42.340Z,24.62
2024-03-23T01:53:42.376Z,24.64
2024-03-23T01:54:42.452Z,24.61
2024-03-23T01:55:42.576Z,24.62
2024-03-23T01:56:42.536Z,24.64
2024-03-23T01:57:42.607Z,24.62
2024-03-23T01:58:42.677Z,24.65
2024-03-23T01:59:42.723Z,24.61
2024-03-23T02:00:42.811Z,24.64
2024-03-23T02:01:42.855Z,24.61
2024-03-23T02:02:42.946Z,24.61
2024-03-23T02:03:43.006Z,24.62
2024-03-23T02:04:43.055Z,24.64
2024-03-23T02:05:43.104Z,24.61
2024-03-23T02:06:43.179Z,24.61
2024-03-23T02:07:43.252Z,24.61
2024-03-23T02:08:43.333Z,24.62
2024-03-23T02:09:43.355Z,24.62
2024-03-23T02:10:43.412Z,24.62
2024-03-23T02:11:43.493Z,24.62
2024-03-23T02:12:43.658Z,24.61
2024-03-23T02:13:43.616Z,24.61
2024-03-23T02:14:43.668Z,24.62
2024-03-23T02:15:43.708Z,24.62
2024-03-23T02:16:43.783Z,24.59
2024-03-23T02:17:43.858Z,24.59
2024-03-23T02:18:43.931Z,24.61
2024-03-23T02:19:43.949Z,24.59
2024-03-23T02:20:44.042Z,24.59
2024-03-23T02:21:44.074Z,24.61
2024-03-23T02:22:44.145Z,24.62
2024-03-23T02:23:44.208Z,24.61
2024-03-23T02:24:44.263Z,24.59
2024-03-23T02:25:44.325Z,24.61
2024-03-23T02:26:44.470Z,24.61
2024-03-23T02:27:44.441Z,24.58
2024-03-23T02:28:44.566Z,24.59
2024-03-23T02:29:44.577Z,24.57
2024-03-23T02:30:44.665Z,24.58
2024-03-23T02:31:44.723Z,24.58
2024-03-23T02:32:44.803Z,24.57
2024-03-23T02:33:44.858Z,24.57
2024-03-23T02:34:44.927Z,24.57
2024-03-23T02:35:44.988Z,24.58
2024-03-23T02:36:45.044Z,24.54
2024-03-23T02:37:45.108Z,24.57
2024-03-23T02:38:45.199Z,24.55
2024-03-23T02:39:45.232Z,24.57
2024-03-23T02:40:45.298Z,24.54
2024-03-23T02:41:45.423Z,24.57
2024-03-23T02:42:45.462Z,24.54
2024-03-23T02:43:45.563Z,24.57
2024-03-23T02:44:45.574Z,24.52
2024-03-23T02:45:45.643Z,24.52
2024-03-23T02:46:45.715Z,24.54
2024-03-23T02:47:45.767Z,24.51
2024-03-23T02:48:45.853Z,24.55
2024-03-23T02:49:45.906Z,24.52
2024-03-23T02:50:45.969Z,24.55
2024-03-23T02:51:46.040Z,24.50
2024-03-23T02:52:46.111Z,24.52
2024-03-23T02:53:46.194Z,24.51
2024-03-23T02:54:46.242Z,24.52
2024-03-23T02:55:46.310Z,24.52
2024-03-23T02:56:46.378Z,24.50
2024-03-23T02:57:46.449Z,24.54
2024-03-23T02:58:46.519Z,24.50
2024-03-23T02:59:46.571Z,24.50
2024-03-23T03:00:46.637Z,24.50
2024-03-23T03:01:46.710Z,24.48
2024-03-23T03:02:46.786Z,24.51
2024-03-23T03:03:46.858Z,24.51
2024-03-23T03:04:46.903Z,24.50
2024-03-23T03:05:46.985Z,24.50
2024-03-23T03:06:47.029Z,24.51
2024-03-23T03:07:47.137Z,24.51
2024-03-23T03:08:47.176Z,24.50
2024-03-23T03:09:47.241Z,24.51
2024-03-23T03:10:47.293Z,24.48
2024-03-23T03:11:47.364Z,24.51
2024-03-23T03:12:47.437Z,24.50
2024-03-23T03:13:47.505Z,24.51
2024-03-23T03:14:47.572Z,24.50
2024-03-23T03:15:47.663Z,24.50
2024-03-23T03:16:47.687Z,24.51
2024-03-23T03:17:47.746Z,24.50
2024-03-23T03:18:47.832Z,24.51
2024-03-23T03:19:47.891Z,24.48
2024-03-23T03:20:47.957Z,24.47
2024-03-23T03:21:48.030Z,24.48
2024-03-23T03:22:48.210Z,24.48
2024-03-23T03:23:48.171Z,24.47
2024-03-23T03:24:48.236Z,24.48
2024-03-23T03:25:48.336Z,24.47
2024-03-23T03:26:48.377Z,24.48
2024-03-23T03:27:48.439Z,24.48
2024-03-23T03:28:48.515Z,24.48
2024-03-23T03:29:48.585Z,24.47
2024-03-23T03:30:48.646Z,24.45
2024-03-23T03:31:48.723Z,24.47
2024-03-23T03:32:48.795Z,24.47
2024-03-23T03:33:48.884Z,24.48
2024-03-23T03:34:48.928Z,24.47
2024-03-23T03:35:49.005Z,24.44
2024-03-23T03:36:49.067Z,24.47
2024-03-23T03:37:49.136Z,24.45
2024-03-23T03:38:49.227Z,24.44
2024-03-23T03:39:49.277Z,24.47
2024-03-23T03:40:49.353Z,24.45
2024-03-23T03:41:49.415Z,24.44
2024-03-23T03:42:49.488Z,24.45
2024-03-23T03:43:49.565Z,24.42
2024-03-23T03:44:49.632Z,24.44
2024-03-23T03:45:49.702Z,24.44
2024-03-23T03:46:49.762Z,24.42
2024-03-23T03:47:49.831Z,24.44
2024-03-23T03:48:49.908Z,24.44
2024-03-23T03:49:49.972Z,24.42
2024-03-23T03:50:50.062Z,24.42
2024-03-23T03:51:50.100Z,24.41
2024-03-23T03:52:50.184Z,24.44
2024-03-23T03:53:50.256Z,24.38
2024-03-23T03:54:50.312Z,24.41
2024-03-23T03:55:50.387Z,24.41
2024-03-23T03:56:50.464Z,24.41
2024-03-23T03:57:50.530Z,24.39
2024-03-23T03:58:50.609Z,24.39
2024-03-23T03:59:50.653Z,24.38
2024-03-23T04:00:50.745Z,24.38
2024-03-23T04:01:50.789Z,24.38
2024-03-23T04:02:50.862Z,24.39
2024-03-23T04:03:50.945Z,24.38
2024-03-23T04:04:51.008Z,24.38
2024-03-23T04:05:51.066Z,24.37
2024-03-23T04:06:51.160Z,24.39
2024-03-23T04:07:51.220Z,24.38
2024-03-23T04:08:51.300Z,24.37
2024-03-23T04:09:51.349Z,24.38
2024-03-23T04:10:51.375Z,24.39
2024-03-23T04:11:51.456Z,24.38
2024-03-23T04:12:51.541Z,24.39
2024-03-23T04:13:51.607Z,24.37
2024-03-23T04:14:51.667Z,24.37
2024-03-23T04:15:51.724Z,24.37
2024-03-23T04:16:58.898Z,24.37
2024-03-23T04:17:58.891Z,24.35
2024-03-23T04:18:58.898Z,24.35
2024-03-23T04:19:58.923Z,24.37
2024-03-23T04:20:58.888Z,24.37
2024-03-23T04:21:58.898Z,24.38
2024-03-23T04:22:58.896Z,24.37
2024-03-23T04:23:58.899Z,24.35
2024-03-23T04:24:58.911Z,24.37
2024-03-23T04:25:58.911Z,24.35
2024-03-23T04:26:58.899Z,24.34
2024-03-23T04:27:58.904Z,24.37
2024-03-23T04:28:58.941Z,24.35
2024-03-23T04:29:58.905Z,24.35
2024-03-23T04:31:06.081Z,24.32
2024-03-23T04:32:06.061Z,24.32
2024-03-23T04:33:06.066Z,24.34
2024-03-23T04:34:06.075Z,24.34
2024-03-23T04:35:06.076Z,24.34
2024-03-23T04:36:06.076Z,24.35
2024-03-23T04:37:06.083Z,24.34
2024-03-23T04:38:06.083Z,24.37
2024-03-23T04:39:06.199Z,24.32
2024-03-23T04:40:06.079Z,24.35
2024-03-23T04:41:06.076Z,24.34
2024-03-23T04:42:06.084Z,24.31
2024-03-23T04:43:06.079Z,24.34
2024-03-23T04:44:06.202Z,24.32
2024-03-23T04:45:06.082Z,24.35
2024-03-23T04:46:06.071Z,24.32
2024-03-23T04:47:06.083Z,24.34
2024-03-23T04:48:06.091Z,24.34
2024-03-23T04:49:06.107Z,24.35
2024-03-23T04:50:06.093Z,24.34
2024-03-23T04:51:06.090Z,24.32
2024-03-23T04:52:06.104Z,24.32
2024-03-23T04:53:06.088Z,24.32
2024-03-23T04:54:06.105Z,24.35
2024-03-23T04:55:06.105Z,24.35
2024-03-23T04:56:06.097Z,24.32
2024-03-23T04:57:06.152Z,24.31
2024-03-23T04:58:06.229Z,24.34
2024-03-23T04:59:06.319Z,24.34
2024-03-23T05:00:06.361Z,24.31
2024-03-23T05:01:06.429Z,24.32
2024-03-23T05:02:06.484Z,24.34
2024-03-23T05:03:06.545Z,24.31
2024-03-23T05:04:06.610Z,24.31
2024-03-23T05:05:06.665Z,24.32
2024-03-23T05:06:06.750Z,24.31
2024-03-23T05:07:06.808Z,24.32
2024-03-23T05:08:06.887Z,24.30
2024-03-23T05:09:06.948Z,24.31
2024-03-23T05:10:07.020Z,24.32
2024-03-23T05:11:07.078Z,24.31
2024-03-23T05:12:07.164Z,24.31
2024-03-23T05:13:07.227Z,24.31
2024-03-23T05:14:07.301Z,24.34
2024-03-23T05:15:07.371Z,24.31
2024-03-23T05:16:07.412Z,24.31
2024-03-23T05:17:07.462Z,24.31
2024-03-23T05:18:07.532Z,24.34
2024-03-23T05:19:07.607Z,24.31
2024-03-23T05:20:07.666Z,24.31
2024-03-23T05:21:07.736Z,24.32
2024-03-23T05:22:07.775Z,24.31
2024-03-23T05:23:07.832Z,24.32
2024-03-23T05:24:07.903Z,24.32
2024-03-23T05:25:07.975Z,24.32
2024-03-23T05:26:08.030Z,24.32
2024-03-23T05:27:08.099Z,24.34
2024-03-23T05:28:08.152Z,24.34
2024-03-23T05:29:08.246Z,24.32
2024-03-23T05:30:08.297Z,24.34
2024-03-23T05:31:08.350Z,24.32
2024-03-23T05:32:08.441Z,24.34
2024-03-23T05:33:08.484Z,24.34
2024-03-23T05:34:08.555Z,24.39
2024-03-23T05:35:08.629Z,24.48
2024-03-23T05:36:08.692Z,24.55
2024-03-23T05:37:08.755Z,24.61
2024-03-23T05:38:08.809Z,24.68
2024-03-23T05:39:08.874Z,24.75
2024-03-23T05:40:08.926Z,24.74
2024-03-23T05:41:08.976Z,24.82
2024-03-23T05:42:09.677Z,24.93
2024-03-23T05:43:09.051Z,25.03
2024-03-23T05:44:09.104Z,25.15
2024-03-23T05:45:09.141Z,25.22
2024-03-23T05:46:09.186Z,25.32
2024-03-23T05:47:09.180Z,25.43
2024-03-23T05:48:09.211Z,25.49
2024-03-23T05:49:09.218Z,25.54
2024-03-23T05:50:09.220Z,25.54
2024-03-23T05:51:09.231Z,25.60
2024-03-23T05:52:09.247Z,25.75
2024-03-23T05:53:09.251Z,25.73
2024-03-23T05:54:09.263Z,25.83
2024-03-23T05:55:09.303Z,25.88
2024-03-23T05:56:09.300Z,25.98
2024-03-23T05:57:09.366Z,26.11
2024-03-23T05:58:09.413Z,26.20
2024-03-23T05:59:09.490Z,26.30
2024-03-23T06:00:09.548Z,26.40
2024-03-23T06:01:09.604Z,26.45
2024-03-23T06:02:09.691Z,26.52
2024-03-23T06:03:09.719Z,26.65
2024-03-23T06:04:09.769Z,26.72
2024-03-23T06:05:09.806Z,26.82
2024-03-23T06:06:09.853Z,26.91
2024-03-23T06:07:09.876Z,26.99
2024-03-23T06:08:09.892Z,27.09
2024-03-23T06:09:09.932Z,27.16
2024-03-23T06:10:09.940Z,27.22
2024-03-23T06:11:09.952Z,27.30
2024-03-23T06:12:09.980Z,27.38
2024-03-23T06:13:09.976Z,27.43
2024-03-23T06:14:09.999Z,27.49
2024-03-23T06:15:12.392Z,27.56
2024-03-23T06:16:10.004Z,27.60
2024-03-23T06:17:10.018Z,27.64
2024-03-23T06:18:10.021Z,27.70
2024-03-23T06:19:10.082Z,27.74
2024-03-23T06:20:10.014Z,27.79
2024-03-23T06:21:10.023Z,27.86
2024-03-23T06:22:10.018Z,27.89
2024-03-23T06:23:10.024Z,27.93
2024-03-23T06:24:10.026Z,28.00
2024-03-23T06:25:10.072Z,28.04
2024-03-23T06:26:10.023Z,28.11
2024-03-23T06:27:10.035Z,28.17
2024-03-23T06:28:10.016Z,28.21
2024-03-23T06:29:10.040Z,28.31
2024-03-23T06:30:10.035Z,28.40
2024-03-23T06:31:10.886Z,28.81
2024-03-23T06:32:10.024Z,29.32
2024-03-23T06:33:10.020Z,29.63
2024-03-23T06:34:10.022Z,29.99
2024-03-23T06:35:10.042Z,30.33
2024-03-23T06:36:10.031Z,30.60
2024-03-23T06:37:10.019Z,30.91
2024-03-23T06:38:10.038Z,30.97
2024-03-23T06:39:10.028Z,31.01
2024-03-23T06:40:10.019Z,31.18
2024-03-23T06:41:10.046Z,31.33
2024-03-23T06:42:10.032Z,31.53
2024-03-23T06:43:10.023Z,31.71
2024-03-23T06:44:10.024Z,31.83
2024-03-23T06:45:10.028Z,31.95
2024-03-23T06:46:10.036Z,31.96
2024-03-23T06:47:10.060Z,31.80
2024-03-23T06:48:10.036Z,31.52
2024-03-23T06:49:10.033Z,31.25
2024-03-23T06:50:10.037Z,31.05
2024-03-23T06:51:10.034Z,30.88
2024-03-23T06:52:10.028Z,30.73
2024-03-23T06:53:10.037Z,30.55
2024-03-23T06:54:10.049Z,30.41
2024-03-23T06:55:10.048Z,30.26
2024-03-23T06:56:12.072Z,30.13
2024-03-23T06:57:10.047Z,30.03
2024-03-23T06:58:10.040Z,29.94
2024-03-23T06:59:10.081Z,29.87
2024-03-23T07:00:10.058Z,29.80
2024-03-23T07:01:10.057Z,29.75
2024-03-23T07:02:10.055Z,29.70
2024-03-23T07:03:10.054Z,29.69
2024-03-23T07:04:10.059Z,29.63
2024-03-23T07:05:10.055Z,29.52
2024-03-23T07:06:10.059Z,29.50
2024-03-23T07:07:10.051Z,29.48
2024-03-23T07:08:10.075Z,29.45
2024-03-23T07:09:10.058Z,29.42
2024-03-23T07:10:10.073Z,29.35
2024-03-23T07:11:10.077Z,29.33
2024-03-23T07:12:10.122Z,29.32
2024-03-23T07:13:11.888Z,29.30
2024-03-23T07:14:10.118Z,29.30
2024-03-23T07:15:10.102Z,29.26
2024-03-23T07:16:10.109Z,29.25
2024-03-23T07:17:10.097Z,29.22
2024-03-23T07:18:10.095Z,29.16
2024-03-23T07:19:10.085Z,29.12
2024-03-23T07:20:10.122Z,29.05
2024-03-23T07:21:10.099Z,28.94
2024-03-23T07:22:10.099Z,28.87
2024-03-23T07:23:10.112Z,28.79
2024-03-23T07:24:10.104Z,28.74
2024-03-23T07:25:10.105Z,28.70
2024-03-23T07:26:10.112Z,28.62
2024-03-23T07:27:10.128Z,28.58
2024-03-23T07:28:10.093Z,28.52
2024-03-23T07:29:10.096Z,28.51
2024-03-23T07:30:10.094Z,28.47
2024-03-23T07:31:10.085Z,28.44
2024-03-23T07:32:10.091Z,28.43
2024-03-23T07:33:10.112Z,28.40
2024-03-23T07:34:10.104Z,28.40
2024-03-23T07:35:10.116Z,28.34
2024-03-23T07:36:10.141Z,28.31
2024-03-23T07:37:10.183Z,28.28
2024-03-23T07:38:10.230Z,28.30
2024-03-23T07:39:13.043Z,28.27
2024-03-23T07:40:10.218Z,28.28
2024-03-23T07:41:10.216Z,28.26
2024-03-23T07:42:10.216Z,28.26
2024-03-23T07:43:10.229Z,28.23
2024-03-23T07:44:10.240Z,28.24
2024-03-23T07:45:10.218Z,28.21
2024-03-23T07:46:10.248Z,28.21
2024-03-23T07:47:10.244Z,28.21
2024-03-23T07:48:10.227Z,28.21
2024-03-23T07:49:10.236Z,28.21
2024-03-23T07:50:10.239Z,28.20
2024-03-23T07:51:10.233Z,28.21
2024-03-23T07:52:10.239Z,28.21
2024-03-23T07:53:10.245Z,28.21
2024-03-23T07:54:10.271Z,28.21
2024-03-23T07:55:10.259Z,28.18
2024-03-23T07:56:10.253Z,28.21
2024-03-23T07:57:10.233Z,28.21
2024-03-23T07:58:10.249Z,28.23
2024-03-23T07:59:10.259Z,28.23
2024-03-23T08:00:10.278Z,28.21
2024-03-23T08:01:10.262Z,28.23
2024-03-23T08:02:10.253Z,28.23
2024-03-23T08:03:10.246Z,28.23
2024-03-23T08:04:10.312Z,28.24
2024-03-23T08:05:10.242Z,28.23
2024-03-23T08:06:10.247Z,28.21
2024-03-23T08:07:10.247Z,28.23
2024-03-23T08:08:10.264Z,28.21
2024-03-23T08:09:10.263Z,28.20
2024-03-23T08:10:10.276Z,28.16
2024-03-23T08:11:10.275Z,28.18
2024-03-23T08:12:10.239Z,28.20
2024-03-23T08:13:10.236Z,28.16
2024-03-23T08:14:10.237Z,28.16
2024-03-23T08:15:10.244Z,28.13
2024-03-23T08:16:10.231Z,28.11
2024-03-23T08:17:10.239Z,28.11
2024-03-23T08:18:10.278Z,28.11
2024-03-23T08:19:10.255Z,28.08
2024-03-23T08:20:10.248Z,28.07
2024-03-23T08:21:10.275Z,28.06
2024-03-23T08:22:10.237Z,28.04
2024-03-23T08:23:10.247Z,28.01
2024-03-23T08:24:10.263Z,28.01
2024-03-23T08:25:10.258Z,27.99
2024-03-23T08:26:10.250Z,27.99
2024-03-23T08:27:10.246Z,27.99
2024-03-23T08:28:10.244Z,27.99
2024-03-23T08:29:10.258Z,27.96
2024-03-23T08:30:10.270Z,27.92
2024-03-23T08:31:10.251Z,27.92
2024-03-23T08:32:10.259Z,27.93
2024-03-23T08:33:10.258Z,27.90
2024-03-23T08:34:10.254Z,27.89
2024-03-23T08:35:10.264Z,27.87
2024-03-23T08:36:10.260Z,27.86
2024-03-23T08:37:10.261Z,27.84
2024-03-23T08:38:10.267Z,27.84
2024-03-23T08:39:20.690Z,27.82
2024-03-23T08:40:11.311Z,27.80
2024-03-23T08:41:10.283Z,27.77
2024-03-23T08:42:10.285Z,27.77
2024-03-23T08:43:10.298Z,27.77
2024-03-23T08:44:10.328Z,27.74
2024-03-23T08:45:10.287Z,27.74
2024-03-23T08:46:10.275Z,27.73
2024-03-23T08:47:10.287Z,27.73
2024-03-23T08:48:10.288Z,27.73
2024-03-23T08:49:10.305Z,27.72
2024-03-23T08:50:10.350Z,27.66
2024-03-23T08:51:10.404Z,27.64
2024-03-23T08:52:10.489Z,27.64
2024-03-23T08:53:10.564Z,27.63
2024-03-23T08:54:10.609Z,27.64
2024-03-23T08:55:10.706Z,27.60
2024-03-23T08:56:10.733Z,27.60
2024-03-23T08:57:10.799Z,27.56
2024-03-23T08:58:10.861Z,27.57
2024-03-23T08:59:10.928Z,27.56
2024-03-23T09:00:11.013Z,27.54
2024-03-23T09:01:11.062Z,27.52
2024-03-23T09:02:11.133Z,27.50
2024-03-23T09:03:11.202Z,27.52
2024-03-23T09:04:11.271Z,27.46
2024-03-23T09:05:11.346Z,27.48
2024-03-23T09:06:11.434Z,27.48
2024-03-23T09:07:11.491Z,27.48
2024-03-23T09:08:14.153Z,27.46
2024-03-23T09:09:11.567Z,27.43
2024-03-23T09:10:11.564Z,27.43
2024-03-23T09:11:11.561Z,27.43
2024-03-23T09:12:11.595Z,27.42
2024-03-23T09:13:11.597Z,27.39
2024-03-23T09:14:11.576Z,27.38
2024-03-23T09:15:11.587Z,27.38
2024-03-23T09:16:11.580Z,27.36
2024-03-23T09:17:11.572Z,27.35
2024-03-23T09:18:11.587Z,27.33
2024-03-23T09:19:11.603Z,27.28
2024-03-23T09:20:11.576Z,27.29
2024-03-23T09:21:11.585Z,27.26
2024-03-23T09:22:11.591Z,27.25
2024-03-23T09:23:11.586Z,27.24
2024-03-23T09:24:11.592Z,27.22
2024-03-23T09:25:11.601Z,27.19
2024-03-23T09:26:11.595Z,27.22
2024-03-23T09:27:11.598Z,27.19
2024-03-23T09:28:11.594Z,27.16
2024-03-23T09:29:11.594Z,27.12
2024-03-23T09:30:11.604Z,27.03
2024-03-23T09:31:11.602Z,26.99
2024-03-23T09:32:11.593Z,26.95
2024-03-23T09:33:11.606Z,26.88
2024-03-23T09:34:11.601Z,26.85
2024-03-23T09:35:11.617Z,26.79
2024-03-23T09:36:11.643Z,26.77
2024-03-23T09:37:11.631Z,26.77
2024-03-23T09:38:11.609Z,26.72
2024-03-23T09:39:11.610Z,26.71
2024-03-23T09:40:11.625Z,26.65
2024-03-23T09:41:11.614Z,26.62
2024-03-23T09:42:11.619Z,26.59
2024-03-23T09:43:11.614Z,26.59
2024-03-23T09:44:11.609Z,26.62
2024-03-23T09:45:11.632Z,26.62
2024-03-23T09:46:11.616Z,26.65
2024-03-23T09:47:11.628Z,26.65
2024-03-23T09:48:11.650Z,26.67
2024-03-23T09:49:11.632Z,26.65
2024-03-23T09:50:11.622Z,26.62
2024-03-23T09:51:11.668Z,26.56
2024-03-23T09:52:11.637Z,26.58
2024-03-23T09:53:11.625Z,26.58
2024-03-23T09:54:11.637Z,26.55
2024-03-23T09:55:11.640Z,26.52
2024-03-23T09:56:11.651Z,26.52
2024-03-23T09:57:11.642Z,26.47
2024-03-23T09:58:11.651Z,26.44
2024-03-23T09:59:11.631Z,26.44
2024-03-23T10:00:11.647Z,26.44
2024-03-23T10:01:11.631Z,26.38
2024-03-23T10:02:11.639Z,26.40
2024-03-23T10:03:11.625Z,26.40
2024-03-23T10:04:11.650Z,26.37
2024-03-23T10:05:11.637Z,26.40
2024-03-23T10:06:11.653Z,26.40
2024-03-23T10:07:11.630Z,26.35
2024-03-23T10:08:11.652Z,26.37
2024-03-23T10:09:11.635Z,26.37
2024-03-23T10:10:11.657Z,26.34
2024-03-23T10:11:11.700Z,26.31
2024-03-23T10:12:11.648Z,26.30
2024-03-23T10:13:11.653Z,26.31
2024-03-23T10:14:11.664Z,26.28
2024-03-23T10:15:11.670Z,26.26
2024-03-23T10:16:11.650Z,26.28
2024-03-23T10:17:11.662Z,26.26
2024-03-23T10:18:11.680Z,26.27
2024-03-23T10:19:11.649Z,26.26
2024-03-23T10:20:11.697Z,26.30
2024-03-23T10:21:11.649Z,26.27
2024-03-23T10:22:11.677Z,26.28
2024-03-23T10:23:11.716Z,26.31
2024-03-23T10:24:11.689Z,26.32
2024-03-23T10:25:11.710Z,26.34
2024-03-23T10:26:11.661Z,26.32
2024-03-23T10:27:11.659Z,26.31
2024-03-23T10:28:11.669Z,26.30
2024-03-23T10:29:11.679Z,26.28
2024-03-23T10:30:11.705Z,26.27
2024-03-23T10:31:11.672Z,26.27
2024-03-23T10:32:11.731Z,26.27
2024-03-23T10:33:11.730Z,26.24
2024-03-23T10:34:11.738Z,26.28
2024-03-23T10:35:11.798Z,26.27
2024-03-23T10:36:11.816Z,26.23
2024-03-23T10:37:11.861Z,26.23
2024-03-23T10:38:12.359Z,26.21
2024-03-23T10:39:11.938Z,26.26
2024-03-23T10:40:11.955Z,26.23
2024-03-23T10:41:11.989Z,26.27
2024-03-23T10:42:12.027Z,26.23
2024-03-23T10:43:12.216Z,26.21
2024-03-23T10:44:12.065Z,26.21
2024-03-23T10:45:12.105Z,26.20
2024-03-23T10:46:12.139Z,26.23
2024-03-23T10:47:12.193Z,26.24
2024-03-23T10:48:12.205Z,26.20
2024-03-23T10:49:12.257Z,26.20
2024-03-23T10:50:12.284Z,26.18
2024-03-23T10:51:12.316Z,26.20
2024-03-23T10:52:12.347Z,26.18
2024-03-23T10:53:12.394Z,26.17
2024-03-23T10:54:12.422Z,26.16
2024-03-23T10:55:12.488Z,26.17
2024-03-23T10:56:12.509Z,26.16
2024-03-23T10:57:12.543Z,26.16
2024-03-23T10:58:12.599Z,26.18
2024-03-23T10:59:12.632Z,26.17
2024-03-23T11:00:12.675Z,26.13
2024-03-23T11:01:12.750Z,26.13
2024-03-23T11:02:12.769Z,26.13
2024-03-23T11:03:12.830Z,26.14
2024-03-23T11:04:12.845Z,26.13
2024-03-23T11:05:12.920Z,26.13
2024-03-23T11:06:12.983Z,26.14
2024-03-23T11:07:13.035Z,26.14
2024-03-23T11:08:13.109Z,26.14
2024-03-23T11:09:13.172Z,26.13
2024-03-23T11:10:13.242Z,26.11
2024-03-23T11:11:13.312Z,26.10
2024-03-23T11:12:13.378Z,26.11
2024-03-23T11:13:13.459Z,26.08
2024-03-23T11:14:13.542Z,26.05
2024-03-23T11:15:13.599Z,26.05
2024-03-23T11:16:13.675Z,26.03
2024-03-23T11:17:13.749Z,26.03
2024-03-23T11:18:13.808Z,26.01
2024-03-23T11:19:13.868Z,26.03
2024-03-23T11:20:13.942Z,26.01
2024-03-23T11:21:13.976Z,25.98
2024-03-23T11:22:14.021Z,25.94
2024-03-23T11:23:14.041Z,25.96
2024-03-23T11:24:14.083Z,25.94
2024-03-23T11:25:14.101Z,25.93
2024-03-23T11:26:14.151Z,25.91
2024-03-23T11:27:14.162Z,25.88
2024-03-23T11:28:14.268Z,25.88
2024-03-23T11:29:14.195Z,25.87
2024-03-23T11:30:14.243Z,25.84
2024-03-23T11:31:14.230Z,25.83
2024-03-23T11:32:14.264Z,25.80
2024-03-23T11:33:14.229Z,25.80
2024-03-23T11:34:14.245Z,25.73
2024-03-23T11:35:14.271Z,25.77
2024-03-23T11:36:14.240Z,25.76
2024-03-23T11:37:14.280Z,25.72
2024-03-23T11:38:14.292Z,25.72
2024-03-23T11:39:14.266Z,25.70
2024-03-23T11:40:14.283Z,25.70
2024-03-23T11:41:14.296Z,25.70
2024-03-23T11:42:14.316Z,25.72
2024-03-23T11:43:14.344Z,25.70
2024-03-23T11:44:14.370Z,25.67
2024-03-23T11:45:14.489Z,25.66
2024-03-23T11:46:14.481Z,25.66
2024-03-23T11:47:14.456Z,25.62
2024-03-23T11:48:14.483Z,25.63
2024-03-23T11:49:14.494Z,25.57
2024-03-23T11:50:14.526Z,25.57
2024-03-23T11:51:14.553Z,25.56
2024-03-23T11:52:14.574Z,25.56
2024-03-23T11:53:14.631Z,25.52
2024-03-23T11:54:14.640Z,25.53
2024-03-23T11:55:14.673Z,25.47
2024-03-23T11:56:14.729Z,25.50
2024-03-23T11:57:14.761Z,25.50
2024-03-23T11:58:14.806Z,25.52
2024-03-23T11:59:14.888Z,25.49
2024-03-23T12:00:14.876Z,25.46
2024-03-23T12:01:14.920Z,25.46
2024-03-23T12:02:14.996Z,25.42
2024-03-23T12:03:15.029Z,25.42
2024-03-23T12:04:15.089Z,25.42
2024-03-23T12:05:15.128Z,25.42
2024-03-23T12:06:15.194Z,25.39
2024-03-23T12:07:15.256Z,25.36
2024-03-23T12:08:15.286Z,25.36
2024-03-23T12:09:15.330Z,25.34
2024-03-23T12:10:15.382Z,25.32
2024-03-23T12:11:15.441Z,25.30
2024-03-23T12:12:15.519Z,25.29
2024-03-23T12:13:15.546Z,25.30
2024-03-23T12:14:15.604Z,25.28
2024-03-23T12:15:15.652Z,25.28
2024-03-23T12:16:15.717Z,25.26
2024-03-23T12:17:15.789Z,25.22
2024-03-23T12:18:15.848Z,25.22
2024-03-23T12:19:15.896Z,25.21
2024-03-23T12:20:15.976Z,25.19
2024-03-23T12:21:16.017Z,25.18
2024-03-23T12:22:16.114Z,25.16
2024-03-23T12:23:16.143Z,25.19
2024-03-23T12:24:16.219Z,25.12
2024-03-23T12:25:16.286Z,25.09
2024-03-23T12:26:16.429Z,25.06
2024-03-23T12:27:16.426Z,25.08
2024-03-23T12:28:16.492Z,25.05
2024-03-23T12:29:16.545Z,25.05
2024-03-23T12:30:16.606Z,25.03
2024-03-23T12:31:16.704Z,25.03
2024-03-23T12:32:16.733Z,25.02
2024-03-23T12:33:16.806Z,25.03
2024-03-23T12:34:16.875Z,25.01
2024-03-23T12:35:16.936Z,24.96
2024-03-23T12:36:17.012Z,24.98
2024-03-23T12:37:20.629Z,24.95
2024-03-23T12:38:17.062Z,24.92
2024-03-23T12:39:17.072Z,24.96
2024-03-23T12:40:17.084Z,24.96
2024-03-23T12:41:17.076Z,24.92
2024-03-23T12:42:17.075Z,24.88
2024-03-23T12:43:17.071Z,24.85
2024-03-23T12:44:18.856Z,24.85
2024-03-23T12:45:17.089Z,24.83
2024-03-23T12:46:17.074Z,24.79
2024-03-23T12:47:17.083Z,24.79
2024-03-23T12:48:17.079Z,24.79
2024-03-23T12:49:17.078Z,24.77
2024-03-23T12:50:18.534Z,24.77
2024-03-23T12:51:17.098Z,24.77
2024-03-23T12:52:17.083Z,24.75
2024-03-23T12:53:17.098Z,24.78